createdAt,value
2018-07-06T00:00:53.949Z,18.87
2018-07-06T00:01:54.193Z,18.91
2018-07-06T00:02:54.437Z,18.90
2018-07-06T00:03:54.681Z,18.82
2018-07-06T00:04:54.928Z,18.81
2018-07-06T00:05:55.174Z,18.82
2018-07-06T00:06:55.419Z,18.85
2018-07-06T00:07:55.663Z,18.82
2018-07-06T00:08:55.907Z,18.69
2018-07-06T00:09:56.151Z,18.76
2018-07-06T00:10:56.414Z,18.72
2018-07-06T00:11:56.641Z,18.70
2018-07-06T00:12:56.886Z,18.73
2018-07-06T00:13:57.132Z,18.70
2018-07-06T00:14:57.376Z,18.65
2018-07-06T00:15:57.621Z,18.63
2018-07-06T00:16:57.864Z,18.63
2018-07-06T00:17:58.112Z,18.54
2018-07-06T00:18:58.356Z,18.52
2018-07-06T00:19:58.601Z,18.54
2018-07-06T00:20:58.846Z,18.52
2018-07-06T00:21:59.090Z,18.55
2018-07-06T00:22:59.337Z,18.50
2018-07-06T00:23:59.579Z,18.51
2018-07-06T00:24:59.822Z,18.51
2018-07-06T00:26:00.069Z,18.48
2018-07-06T00:27:00.314Z,18.55
2018-07-06T00:28:00.556Z,18.39
2018-07-06T00:29:00.803Z,18.57
2018-07-06T00:30:01.048Z,18.50
2018-07-06T00:31:01.294Z,18.45
2018-07-06T00:32:01.538Z,18.48
2018-07-06T00:33:01.782Z,18.47
2018-07-06T00:34:02.028Z,18.54
2018-07-06T00:35:02.271Z,18.42
2018-07-06T00:36:02.516Z,18.44
2018-07-06T00:37:02.759Z,18.37
2018-07-06T00:38:03.004Z,18.42
2018-07-06T00:39:03.250Z,18.32
2018-07-06T00:40:03.494Z,18.29
2018-07-06T00:41:03.737Z,18.29
2018-07-06T00:42:03.983Z,18.36
2018-07-06T00:43:04.229Z,18.33
2018-07-06T00:44:04.473Z,18.27
2018-07-06T00:45:04.716Z,18.32
2018-07-06T00:46:04.961Z,18.32
2018-07-06T00:47:05.206Z,18.36
2018-07-06T00:48:05.452Z,18.35
2018-07-06T00:49:05.695Z,18.27
2018-07-06T00:50:05.940Z,18.27
2018-07-06T00:51:06.185Z,18.30
2018-07-06T00:52:06.431Z,18.27
2018-07-06T00:53:06.676Z,18.26
2018-07-06T00:54:06.919Z,18.21
2018-07-06T00:55:07.165Z,18.18
2018-07-06T00:56:07.409Z,18.18
2018-07-06T00:57:07.658Z,18.27
2018-07-06T00:58:07.899Z,18.17
2018-07-06T00:59:08.144Z,18.25
2018-07-06T01:00:08.388Z,18.21
2018-07-06T01:01:08.632Z,18.17
2018-07-06T01:02:08.878Z,18.17
2018-07-06T01:03:09.123Z,18.10
2018-07-06T01:04:09.366Z,18.12
2018-07-06T01:05:09.611Z,18.10
2018-07-06T01:06:09.856Z,18.08
2018-07-06T01:07:10.100Z,18.00
2018-07-06T01:08:10.344Z,18.07
2018-07-06T01:09:10.589Z,18.02
2018-07-06T01:10:10.864Z,18.05
2018-07-06T01:11:11.077Z,17.93
2018-07-06T01:12:11.321Z,18.02
2018-07-06T01:13:11.566Z,17.93
2018-07-06T01:14:11.811Z,17.99
2018-07-06T01:15:12.056Z,17.96
2018-07-06T01:16:12.307Z,17.96
2018-07-06T01:17:12.544Z,17.90
2018-07-06T01:18:12.790Z,17.95
2018-07-06T01:19:13.034Z,17.86
2018-07-06T01:20:13.281Z,17.89
2018-07-06T01:21:13.524Z,17.86
2018-07-06T01:22:13.767Z,17.86
2018-07-06T01:23:14.012Z,17.84
2018-07-06T01:24:14.255Z,17.86
2018-07-06T01:25:14.499Z,17.82
2018-07-06T01:26:14.746Z,17.89
2018-07-06T01:27:14.990Z,17.89
2018-07-06T01:28:15.235Z,17.79
2018-07-06T01:29:15.478Z,17.78
2018-07-06T01:30:15.724Z,17.78
2018-07-06T01:31:15.969Z,17.87
2018-07-06T01:32:16.215Z,17.89
2018-07-06T01:33:16.461Z,17.87
2018-07-06T01:34:16.704Z,17.86
2018-07-06T01:35:16.951Z,17.90
2018-07-06T01:36:17.192Z,17.89
2018-07-06T01:37:17.440Z,17.81
2018-07-06T01:38:17.680Z,17.87
2018-07-06T01:39:17.925Z,17.87
2018-07-06T01:40:18.175Z,17.87
2018-07-06T01:41:18.412Z,17.86
2018-07-06T01:42:18.668Z,17.82
2018-07-06T01:43:18.913Z,17.77
2018-07-06T01:44:19.155Z,17.81
2018-07-06T01:45:19.399Z,17.90
2018-07-06T01:46:19.644Z,17.90
2018-07-06T01:47:19.890Z,17.87
2018-07-06T01:48:20.133Z,17.89
2018-07-06T01:49:20.377Z,17.81
2018-07-06T01:50:20.622Z,17.89
2018-07-06T01:51:20.868Z,17.89
2018-07-06T01:52:21.114Z,17.78
2018-07-06T01:53:21.357Z,17.89
2018-07-06T01:54:21.601Z,17.86
2018-07-06T01:55:21.845Z,17.82
2018-07-06T01:56:22.091Z,17.84
2018-07-06T01:57:22.335Z,17.86
2018-07-06T01:58:22.578Z,17.86
2018-07-06T01:59:22.824Z,17.84
2018-07-06T02:00:23.068Z,17.74
2018-07-06T02:01:23.311Z,17.75
2018-07-06T02:02:23.557Z,17.84
2018-07-06T02:03:23.799Z,17.78
2018-07-06T02:04:24.046Z,17.68
2018-07-06T02:05:24.293Z,17.66
2018-07-06T02:06:24.533Z,17.70
2018-07-06T02:07:24.777Z,17.63
2018-07-06T02:08:25.024Z,17.55
2018-07-06T02:09:25.266Z,17.51
2018-07-06T02:10:25.512Z,17.44
2018-07-06T02:11:25.757Z,17.38
2018-07-06T02:12:26.004Z,17.40
2018-07-06T02:13:26.253Z,17.28
2018-07-06T02:14:26.497Z,17.31
2018-07-06T02:15:26.740Z,17.16
2018-07-06T02:16:26.987Z,17.21
2018-07-06T02:17:27.231Z,17.11
2018-07-06T02:18:27.475Z,17.00
2018-07-06T02:19:27.723Z,17.04
2018-07-06T02:20:27.971Z,17.06
2018-07-06T02:21:28.216Z,17.03
2018-07-06T02:22:28.462Z,17.07
2018-07-06T02:23:28.707Z,17.03
2018-07-06T02:24:28.954Z,17.01
2018-07-06T02:25:29.200Z,16.98
2018-07-06T02:26:29.442Z,16.93
2018-07-06T02:27:29.689Z,16.89
2018-07-06T02:28:29.933Z,16.85
2018-07-06T02:29:30.178Z,16.79
2018-07-06T02:30:30.424Z,16.79
2018-07-06T02:31:30.672Z,16.79
2018-07-06T02:32:30.916Z,16.70
2018-07-06T02:33:31.162Z,16.58
2018-07-06T02:34:31.408Z,16.64
2018-07-06T02:35:31.655Z,16.58
2018-07-06T02:36:31.900Z,16.48
2018-07-06T02:37:32.145Z,16.35
2018-07-06T02:38:32.392Z,16.39
2018-07-06T02:39:32.639Z,16.33
2018-07-06T02:40:32.882Z,16.31
2018-07-06T02:41:33.127Z,16.25
2018-07-06T02:42:33.370Z,16.28
2018-07-06T02:43:33.618Z,16.25
2018-07-06T02:44:33.864Z,16.23
2018-07-06T02:45:34.111Z,16.23
2018-07-06T02:46:34.356Z,16.14
2018-07-06T02:47:34.597Z,16.14
2018-07-06T02:48:34.843Z,16.02
2018-07-06T02:49:35.089Z,16.09
2018-07-06T02:50:35.333Z,16.12
2018-07-06T02:51:35.585Z,16.11
2018-07-06T02:52:35.824Z,16.09
2018-07-06T02:53:36.067Z,16.08
2018-07-06T02:54:36.312Z,16.12
2018-07-06T02:55:36.557Z,16.15
2018-07-06T02:56:36.822Z,16.15
2018-07-06T02:57:37.050Z,16.11
2018-07-06T02:58:37.297Z,16.09
2018-07-06T02:59:37.539Z,16.14
2018-07-06T03:00:37.785Z,16.11
2018-07-06T03:01:38.029Z,16.07
2018-07-06T03:02:38.305Z,16.04
2018-07-06T03:03:38.520Z,16.04
2018-07-06T03:04:38.767Z,16.00
2018-07-06T03:05:39.011Z,15.97
2018-07-06T03:06:39.257Z,15.96
2018-07-06T03:07:39.503Z,15.96
2018-07-06T03:08:39.749Z,15.93
2018-07-06T03:09:39.998Z,15.93
2018-07-06T03:10:40.239Z,15.86
2018-07-06T03:11:40.482Z,15.97
2018-07-06T03:12:40.729Z,15.94
2018-07-06T03:13:40.972Z,15.94
2018-07-06T03:14:41.217Z,15.86
2018-07-06T03:15:41.463Z,15.89
2018-07-06T03:16:41.708Z,15.80
2018-07-06T03:17:41.950Z,15.76
2018-07-06T03:18:42.194Z,15.74
2018-07-06T03:19:42.438Z,15.68
2018-07-06T03:20:42.683Z,15.65
2018-07-06T03:21:42.928Z,15.62
2018-07-06T03:22:43.170Z,15.60
2018-07-06T03:23:43.417Z,15.50
2018-07-06T03:24:43.660Z,15.53
2018-07-06T03:25:43.906Z,15.50
2018-07-06T03:26:44.151Z,15.51
2018-07-06T03:27:44.458Z,15.49
2018-07-06T03:28:44.871Z,15.53
2018-07-06T03:29:44.887Z,15.50
2018-07-06T03:30:45.133Z,15.54
2018-07-06T03:31:45.379Z,15.49
2018-07-06T03:32:45.624Z,15.59
2018-07-06T03:33:45.870Z,15.50
2018-07-06T03:34:46.114Z,15.41
2018-07-06T03:35:46.359Z,15.39
2018-07-06T03:36:46.605Z,15.41
2018-07-06T03:37:46.848Z,15.35
2018-07-06T03:38:47.093Z,15.19
2018-07-06T03:39:47.339Z,15.29
2018-07-06T03:40:47.582Z,15.25
2018-07-06T03:41:47.827Z,15.14
2018-07-06T03:42:48.071Z,15.01
2018-07-06T03:43:48.316Z,15.03
2018-07-06T03:44:48.560Z,15.09
2018-07-06T03:45:48.802Z,15.01
2018-07-06T03:46:49.050Z,15.03
2018-07-06T03:47:49.295Z,15.01
2018-07-06T03:48:49.542Z,15.02
2018-07-06T03:49:49.782Z,15.07
2018-07-06T03:50:50.026Z,15.06
2018-07-06T03:51:50.270Z,15.07
2018-07-06T03:52:50.513Z,15.16
2018-07-06T03:53:50.761Z,15.21
2018-07-06T03:54:51.021Z,15.13
2018-07-06T03:55:51.248Z,15.21
2018-07-06T03:56:51.497Z,15.31
2018-07-06T03:57:51.738Z,15.21
2018-07-06T03:58:51.979Z,15.27
2018-07-06T03:59:52.224Z,15.44
2018-07-06T04:00:52.470Z,15.47
2018-07-06T04:01:52.714Z,15.47
2018-07-06T04:02:52.959Z,15.53
2018-07-06T04:03:53.203Z,15.53
2018-07-06T04:04:53.448Z,15.57
2018-07-06T04:05:53.693Z,15.67
2018-07-06T04:06:53.939Z,15.68
2018-07-06T04:07:54.185Z,15.60
2018-07-06T04:08:54.429Z,15.80
2018-07-06T04:09:54.676Z,15.76
2018-07-06T04:10:54.920Z,15.84
2018-07-06T04:11:55.166Z,15.89
2018-07-06T04:12:55.412Z,15.83
2018-07-06T04:13:55.658Z,15.90
2018-07-06T04:14:55.902Z,15.94
2018-07-06T04:15:56.200Z,16.01
2018-07-06T04:16:56.392Z,16.15
2018-07-06T04:17:56.638Z,16.05
2018-07-06T04:18:56.884Z,16.15
2018-07-06T04:19:57.130Z,16.11
2018-07-06T04:20:57.376Z,16.08
2018-07-06T04:21:57.625Z,16.05
2018-07-06T04:22:57.869Z,16.15
2018-07-06T04:23:58.117Z,16.07
2018-07-06T04:24:58.364Z,16.24
2018-07-06T04:25:58.612Z,16.20
2018-07-06T04:26:58.855Z,16.25
2018-07-06T04:27:59.100Z,16.21
2018-07-06T04:28:59.344Z,16.23
2018-07-06T04:29:59.593Z,16.23
2018-07-06T04:30:59.840Z,16.24
2018-07-06T04:32:00.087Z,16.24
2018-07-06T04:33:00.334Z,16.23
2018-07-06T04:34:00.585Z,16.31
2018-07-06T04:35:00.829Z,16.27
2018-07-06T04:36:01.078Z,16.38
2018-07-06T04:37:01.324Z,16.38
2018-07-06T04:38:01.571Z,16.43
2018-07-06T04:39:01.819Z,16.39
2018-07-06T04:40:02.064Z,16.45
2018-07-06T04:41:02.310Z,16.39
2018-07-06T04:42:02.557Z,16.45
2018-07-06T04:43:02.803Z,16.42
2018-07-06T04:44:03.051Z,16.42
2018-07-06T04:45:03.297Z,16.34
2018-07-06T04:46:03.542Z,16.41
2018-07-06T04:47:03.789Z,16.38
2018-07-06T04:48:04.036Z,16.31
2018-07-06T04:49:04.280Z,16.43
2018-07-06T04:50:04.527Z,16.53
2018-07-06T04:51:04.810Z,16.58
2018-07-06T04:52:05.020Z,16.57
2018-07-06T04:53:05.266Z,16.68
2018-07-06T04:54:05.513Z,16.73
2018-07-06T04:55:05.760Z,16.76
2018-07-06T04:56:06.006Z,16.78
2018-07-06T04:57:06.251Z,16.88
2018-07-06T04:58:06.497Z,16.81
2018-07-06T04:59:06.745Z,16.98
2018-07-06T05:00:06.992Z,16.91
2018-07-06T05:01:07.239Z,16.93
2018-07-06T05:02:07.487Z,17.07
2018-07-06T05:03:07.735Z,17.06
2018-07-06T05:04:07.983Z,17.00
2018-07-06T05:05:08.224Z,17.08
2018-07-06T05:06:08.473Z,17.15
2018-07-06T05:07:08.724Z,17.07
2018-07-06T05:08:08.966Z,17.04
2018-07-06T05:09:09.213Z,17.08
2018-07-06T05:10:09.475Z,17.06
2018-07-06T05:11:09.706Z,17.06
2018-07-06T05:12:09.947Z,17.23
2018-07-06T05:13:10.191Z,17.16
2018-07-06T05:14:10.438Z,17.23
2018-07-06T05:15:10.680Z,17.18
2018-07-06T05:16:10.926Z,17.23
2018-07-06T05:17:11.169Z,17.30
2018-07-06T05:18:11.415Z,17.26
2018-07-06T05:19:11.662Z,17.26
2018-07-06T05:20:11.906Z,17.21
2018-07-06T05:21:12.149Z,17.26
2018-07-06T05:22:12.395Z,17.21
2018-07-06T05:23:12.639Z,17.26
2018-07-06T05:24:12.882Z,17.26
2018-07-06T05:25:13.125Z,17.30
2018-07-06T05:26:13.371Z,17.36
2018-07-06T05:27:13.615Z,17.40
2018-07-06T05:28:13.861Z,17.49
2018-07-06T05:29:14.107Z,17.55
2018-07-06T05:30:14.353Z,17.52
2018-07-06T05:31:14.597Z,17.30
2018-07-06T05:32:14.843Z,17.31
2018-07-06T05:33:15.087Z,17.26
2018-07-06T05:34:15.330Z,17.14
2018-07-06T05:35:15.573Z,17.21
2018-07-06T05:36:15.820Z,17.26
2018-07-06T05:37:16.063Z,17.41
2018-07-06T05:38:16.306Z,17.48
2018-07-06T05:39:16.551Z,17.51
2018-07-06T05:40:16.793Z,17.58
2018-07-06T05:41:17.038Z,17.68
2018-07-06T05:42:17.281Z,17.66
2018-07-06T05:43:17.525Z,17.68
2018-07-06T05:44:17.773Z,17.93
2018-07-06T05:45:18.013Z,17.86
2018-07-06T05:46:18.293Z,17.92
2018-07-06T05:47:18.500Z,17.97
2018-07-06T05:48:18.744Z,18.07
2018-07-06T05:49:18.989Z,18.20
2018-07-06T05:50:19.233Z,18.18
2018-07-06T05:51:19.475Z,18.20
2018-07-06T05:52:19.719Z,18.02
2018-07-06T05:53:19.963Z,17.93
2018-07-06T05:54:20.206Z,17.92
2018-07-06T05:55:20.452Z,17.79
2018-07-06T05:56:20.696Z,17.70
2018-07-06T05:57:20.940Z,17.74
2018-07-06T05:58:21.184Z,17.86
2018-07-06T05:59:21.510Z,17.86
2018-07-06T06:00:21.673Z,17.79
2018-07-06T06:01:21.917Z,17.93
2018-07-06T06:02:22.162Z,17.82
2018-07-06T06:03:22.405Z,17.90
2018-07-06T06:04:22.649Z,17.87
2018-07-06T06:05:22.893Z,17.66
2018-07-06T06:06:23.136Z,17.70
2018-07-06T06:07:23.381Z,17.86
2018-07-06T06:08:23.626Z,17.84
2018-07-06T06:09:23.873Z,17.96
2018-07-06T06:10:24.117Z,17.99
2018-07-06T06:11:24.361Z,17.90
2018-07-06T06:12:24.607Z,17.79
2018-07-06T06:13:24.851Z,17.81
2018-07-06T06:14:25.096Z,17.81
2018-07-06T06:15:25.339Z,17.86
2018-07-06T06:16:25.584Z,17.64
2018-07-06T06:17:25.828Z,17.74
2018-07-06T06:18:26.120Z,17.70
2018-07-06T06:19:26.313Z,17.72
2018-07-06T06:20:26.558Z,17.62
2018-07-06T06:21:26.802Z,17.58
2018-07-06T06:22:27.047Z,17.56
2018-07-06T06:23:27.290Z,17.66
2018-07-06T06:24:27.535Z,17.82
2018-07-06T06:25:27.777Z,17.71
2018-07-06T06:26:28.023Z,17.79
2018-07-06T06:27:28.266Z,17.71
2018-07-06T06:28:28.511Z,17.77
2018-07-06T06:29:28.756Z,17.82
2018-07-06T06:30:29.001Z,17.87
2018-07-06T06:31:29.242Z,17.78
2018-07-06T06:32:29.486Z,17.78
2018-07-06T06:33:29.860Z,17.55
2018-07-06T06:34:29.975Z,17.56
2018-07-06T06:35:30.221Z,17.49
2018-07-06T06:36:30.459Z,17.55
2018-07-06T06:37:30.704Z,17.68
2018-07-06T06:38:30.949Z,17.66
2018-07-06T06:39:31.258Z,17.78
2018-07-06T06:40:31.440Z,18.02
2018-07-06T06:41:31.683Z,17.96
2018-07-06T06:42:31.929Z,18.20
2018-07-06T06:43:32.172Z,18.27
2018-07-06T06:44:32.419Z,18.18
2018-07-06T06:45:32.661Z,18.26
2018-07-06T06:46:32.969Z,18.33
2018-07-06T06:47:33.146Z,18.33
2018-07-06T06:48:33.391Z,18.27
2018-07-06T06:49:33.635Z,18.50
2018-07-06T06:50:33.878Z,18.47
2018-07-06T06:51:34.124Z,18.55
2018-07-06T06:52:34.373Z,18.75
2018-07-06T06:53:34.614Z,18.85
2018-07-06T06:54:34.860Z,18.87
2018-07-06T06:55:35.099Z,18.95
2018-07-06T06:56:35.343Z,19.25
2018-07-06T06:57:35.586Z,19.23
2018-07-06T06:58:35.834Z,19.51
2018-07-06T06:59:36.078Z,19.76
2018-07-06T07:00:36.319Z,19.78
2018-07-06T07:01:36.564Z,19.94
2018-07-06T07:02:36.810Z,20.05
2018-07-06T07:03:37.053Z,20.16
2018-07-06T07:04:37.300Z,20.21
2018-07-06T07:05:37.545Z,20.52
2018-07-06T07:06:37.789Z,20.67
2018-07-06T07:07:38.204Z,20.85
2018-07-06T07:08:38.281Z,21.04
2018-07-06T07:09:38.530Z,21.01
2018-07-06T07:10:38.773Z,20.77
2018-07-06T07:11:39.018Z,20.88
2018-07-06T07:12:39.266Z,20.67
2018-07-06T07:13:39.522Z,20.62
2018-07-06T07:14:39.754Z,20.50
2018-07-06T07:15:40.000Z,20.28
2018-07-06T07:16:40.248Z,20.06
2018-07-06T07:17:40.493Z,19.78
2018-07-06T07:18:40.739Z,19.78
2018-07-06T07:19:40.984Z,19.88
2018-07-06T07:20:41.229Z,19.98
2018-07-06T07:21:41.475Z,20.10
2018-07-06T07:22:41.720Z,20.05
2018-07-06T07:23:41.983Z,20.28
2018-07-06T07:24:42.209Z,20.66
2018-07-06T07:25:42.454Z,20.92
2018-07-06T07:26:42.700Z,21.47
2018-07-06T07:27:42.970Z,22.39
2018-07-06T07:28:43.194Z,22.60
2018-07-06T07:29:43.440Z,22.83
2018-07-06T07:30:43.682Z,22.54
2018-07-06T07:31:43.927Z,22.25
2018-07-06T07:32:44.173Z,21.94
2018-07-06T07:33:44.419Z,21.86
2018-07-06T07:34:44.667Z,22.18
2018-07-06T07:35:44.917Z,23.38
2018-07-06T07:36:45.162Z,24.50
2018-07-06T07:37:45.406Z,25.52
2018-07-06T07:38:45.650Z,26.40
2018-07-06T07:39:45.901Z,26.55
2018-07-06T07:40:46.146Z,26.39
2018-07-06T07:41:46.392Z,26.99
2018-07-06T07:42:46.640Z,26.91
2018-07-06T07:43:46.889Z,26.37
2018-07-06T07:44:47.136Z,25.28
2018-07-06T07:45:47.384Z,24.65
2018-07-06T07:46:47.630Z,24.21
2018-07-06T07:47:47.879Z,23.61
2018-07-06T07:48:48.128Z,23.31
2018-07-06T07:49:48.377Z,23.35
2018-07-06T07:50:48.626Z,23.35
2018-07-06T07:51:48.875Z,23.69
2018-07-06T07:52:49.125Z,23.40
2018-07-06T07:53:49.372Z,22.72
2018-07-06T07:54:49.620Z,22.31
2018-07-06T07:55:49.869Z,22.76
2018-07-06T07:56:50.118Z,22.91
2018-07-06T07:57:50.366Z,22.90
2018-07-06T07:58:50.616Z,23.00
2018-07-06T07:59:50.861Z,23.09
2018-07-06T08:00:51.235Z,23.78
2018-07-06T08:01:51.362Z,24.42
2018-07-06T08:02:51.609Z,24.46
2018-07-06T08:03:51.856Z,24.73
2018-07-06T08:04:52.105Z,24.67
2018-07-06T08:05:52.351Z,24.90
2018-07-06T08:06:52.604Z,24.99
2018-07-06T08:07:52.852Z,25.30
2018-07-06T08:08:53.100Z,25.38
2018-07-06T08:09:53.350Z,25.46
2018-07-06T08:10:53.599Z,25.47
2018-07-06T08:11:53.925Z,25.39
2018-07-06T08:12:54.098Z,25.35
2018-07-06T08:13:54.344Z,25.33
2018-07-06T08:14:54.596Z,25.02
2018-07-06T08:15:54.844Z,24.12
2018-07-06T08:16:55.092Z,24.37
2018-07-06T08:17:55.340Z,24.16
2018-07-06T08:18:55.591Z,24.09
2018-07-06T08:19:55.844Z,23.94
2018-07-06T08:20:56.090Z,24.00
2018-07-06T08:21:56.337Z,24.37
2018-07-06T08:22:56.588Z,24.99
2018-07-06T08:23:56.836Z,26.06
2018-07-06T08:24:57.085Z,26.76
2018-07-06T08:25:57.337Z,27.09
2018-07-06T08:26:57.591Z,27.28
2018-07-06T08:27:57.841Z,26.99
2018-07-06T08:28:58.093Z,27.03
2018-07-06T08:29:58.341Z,27.46
2018-07-06T08:30:58.591Z,28.18
2018-07-06T08:31:58.842Z,28.24
2018-07-06T08:32:59.091Z,27.78
2018-07-06T08:33:59.342Z,27.96
2018-07-06T08:34:59.594Z,27.94
2018-07-06T08:35:59.846Z,28.27
2018-07-06T08:37:00.097Z,28.46
2018-07-06T08:38:00.353Z,28.49
2018-07-06T08:39:00.601Z,27.99
2018-07-06T08:40:00.854Z,27.21
2018-07-06T08:41:01.108Z,26.72
2018-07-06T08:42:01.359Z,26.77
2018-07-06T08:43:01.608Z,26.75
2018-07-06T08:44:01.863Z,27.44
2018-07-06T08:45:02.194Z,28.25
2018-07-06T08:46:02.365Z,28.90
2018-07-06T08:47:02.618Z,28.25
2018-07-06T08:48:02.875Z,27.59
2018-07-06T08:49:03.123Z,27.40
2018-07-06T08:50:03.376Z,27.93
2018-07-06T08:51:03.626Z,27.79
2018-07-06T08:52:03.878Z,27.94
2018-07-06T08:53:04.130Z,27.74
2018-07-06T08:54:04.378Z,28.43
2018-07-06T08:55:04.629Z,29.06
2018-07-06T08:56:04.882Z,29.78
2018-07-06T08:57:05.134Z,30.35
2018-07-06T08:58:05.390Z,30.70
2018-07-06T08:59:05.642Z,30.89
2018-07-06T09:00:05.893Z,31.32
2018-07-06T09:01:06.147Z,30.46
2018-07-06T09:02:06.398Z,30.34
2018-07-06T09:03:06.650Z,31.02
2018-07-06T09:04:06.967Z,31.19
2018-07-06T09:05:07.157Z,31.10
2018-07-06T09:06:07.410Z,31.09
2018-07-06T09:07:07.660Z,30.38
2018-07-06T09:08:07.913Z,29.65
2018-07-06T09:09:08.167Z,28.49
2018-07-06T09:10:08.420Z,28.46
2018-07-06T09:11:08.672Z,28.89
2018-07-06T09:12:08.925Z,29.16
2018-07-06T09:13:09.178Z,29.90
2018-07-06T09:14:09.468Z,30.65
2018-07-06T09:15:09.683Z,31.02
2018-07-06T09:16:09.997Z,29.78
2018-07-06T09:17:10.197Z,30.08
2018-07-06T09:18:10.441Z,30.49
2018-07-06T09:19:10.694Z,30.27
2018-07-06T09:20:11.093Z,30.51
2018-07-06T09:21:11.201Z,29.82
2018-07-06T09:22:11.456Z,30.13
2018-07-06T09:23:11.709Z,30.29
2018-07-06T09:24:11.992Z,30.39
2018-07-06T09:25:12.217Z,30.00
2018-07-06T09:26:12.854Z,30.42
2018-07-06T09:27:12.728Z,30.62
2018-07-06T09:28:12.982Z,30.27
2018-07-06T09:29:13.412Z,30.73
2018-07-06T09:30:13.522Z,29.61
2018-07-06T09:31:13.745Z,29.67
2018-07-06T09:32:14.000Z,29.70
2018-07-06T09:33:14.255Z,30.01
2018-07-06T09:34:14.508Z,29.98
2018-07-06T09:35:14.762Z,29.52
2018-07-06T09:36:15.019Z,29.76
2018-07-06T09:37:15.272Z,30.23
2018-07-06T09:38:15.525Z,30.17
2018-07-06T09:39:15.779Z,29.79
2018-07-06T09:40:16.033Z,30.04
2018-07-06T09:41:16.288Z,30.45
2018-07-06T09:42:16.546Z,30.04
2018-07-06T09:43:16.847Z,30.34
2018-07-06T09:44:17.050Z,30.92
2018-07-06T09:45:17.303Z,30.43
2018-07-06T09:46:17.558Z,30.57
2018-07-06T09:47:17.812Z,31.01
2018-07-06T09:48:18.067Z,31.25
2018-07-06T09:49:18.319Z,30.51
2018-07-06T09:50:18.574Z,30.13
2018-07-06T09:51:18.830Z,30.47
2018-07-06T09:52:19.083Z,30.86
2018-07-06T09:53:19.336Z,31.86
2018-07-06T09:54:19.590Z,32.03
2018-07-06T09:55:19.844Z,32.78
2018-07-06T09:56:20.103Z,32.88
2018-07-06T09:57:20.353Z,33.51
2018-07-06T09:58:20.609Z,33.78
2018-07-06T09:59:20.864Z,33.90
2018-07-06T10:00:21.120Z,34.56
2018-07-06T10:01:21.375Z,34.73
2018-07-06T10:02:21.632Z,34.56
2018-07-06T10:03:21.889Z,33.71
2018-07-06T10:04:22.191Z,33.56
2018-07-06T10:05:22.403Z,33.66
2018-07-06T10:06:22.655Z,33.44
2018-07-06T10:07:22.908Z,32.59
2018-07-06T10:08:23.164Z,31.88
2018-07-06T10:09:23.421Z,31.19
2018-07-06T10:10:23.698Z,31.54
2018-07-06T10:11:23.935Z,31.72
2018-07-06T10:12:24.192Z,31.81
2018-07-06T10:13:24.448Z,31.70
2018-07-06T10:14:24.707Z,32.14
2018-07-06T10:15:24.960Z,32.29
2018-07-06T10:16:25.214Z,31.44
2018-07-06T10:17:25.471Z,31.09
2018-07-06T10:18:25.727Z,32.10
2018-07-06T10:19:25.999Z,33.22
2018-07-06T10:20:26.239Z,33.60
2018-07-06T10:21:26.495Z,31.95
2018-07-06T10:22:26.751Z,31.14
2018-07-06T10:23:27.005Z,31.80
2018-07-06T10:24:27.262Z,32.25
2018-07-06T10:25:27.516Z,33.07
2018-07-06T10:26:27.781Z,33.88
2018-07-06T10:27:28.091Z,33.82
2018-07-06T10:28:28.286Z,33.29
2018-07-06T10:29:28.540Z,33.01
2018-07-06T10:30:28.797Z,33.16
2018-07-06T10:31:29.053Z,32.89
2018-07-06T10:32:29.310Z,32.13
2018-07-06T10:33:29.577Z,31.31
2018-07-06T10:34:29.822Z,31.20
2018-07-06T10:35:30.082Z,31.53
2018-07-06T10:36:30.334Z,31.80
2018-07-06T10:37:30.591Z,31.76
2018-07-06T10:38:30.847Z,31.31
2018-07-06T10:39:31.185Z,30.83
2018-07-06T10:40:31.357Z,31.12
2018-07-06T10:41:31.613Z,31.32
2018-07-06T10:42:31.868Z,31.23
2018-07-06T10:43:32.124Z,31.44
2018-07-06T10:44:32.380Z,31.61
2018-07-06T10:45:32.638Z,31.46
2018-07-06T10:46:32.901Z,31.07
2018-07-06T10:47:33.148Z,30.67
2018-07-06T10:48:33.410Z,30.26
2018-07-06T10:49:33.665Z,30.02
2018-07-06T10:50:33.920Z,30.05
2018-07-06T10:51:34.177Z,30.47
2018-07-06T10:52:34.434Z,31.12
2018-07-06T10:53:34.688Z,31.23
2018-07-06T10:54:34.944Z,30.47
2018-07-06T10:55:35.204Z,30.97
2018-07-06T10:56:35.458Z,31.36
2018-07-06T10:57:35.712Z,30.77
2018-07-06T10:58:35.966Z,30.82
2018-07-06T10:59:36.221Z,30.79
2018-07-06T11:00:36.477Z,30.65
2018-07-06T11:01:36.734Z,30.00
2018-07-06T11:02:36.991Z,30.27
2018-07-06T11:03:37.245Z,30.84
2018-07-06T11:04:37.500Z,31.10
2018-07-06T11:05:37.756Z,31.70
2018-07-06T11:06:38.013Z,30.57
2018-07-06T11:07:38.271Z,29.90
2018-07-06T11:08:38.526Z,29.30
2018-07-06T11:09:38.783Z,29.48
2018-07-06T11:10:39.037Z,30.02
2018-07-06T11:11:39.311Z,30.38
2018-07-06T11:12:39.548Z,30.98
2018-07-06T11:13:39.804Z,30.65
2018-07-06T11:14:40.059Z,30.05
2018-07-06T11:15:40.312Z,29.98
2018-07-06T11:16:40.568Z,30.26
2018-07-06T11:17:40.827Z,30.65
2018-07-06T11:18:41.080Z,30.82
2018-07-06T11:19:41.335Z,29.86
2018-07-06T11:20:41.589Z,29.37
2018-07-06T11:21:41.845Z,29.15
2018-07-06T11:22:42.100Z,29.74
2018-07-06T11:23:42.355Z,29.90
2018-07-06T11:24:42.610Z,29.46
2018-07-06T11:25:42.862Z,29.51
2018-07-06T11:26:43.119Z,29.30
2018-07-06T11:27:43.378Z,29.39
2018-07-06T11:28:43.629Z,29.87
2018-07-06T11:29:43.883Z,30.31
2018-07-06T11:30:44.139Z,30.02
2018-07-06T11:31:44.394Z,30.70
2018-07-06T11:32:44.651Z,31.72
2018-07-06T11:33:44.904Z,31.92
2018-07-06T11:34:45.165Z,31.92
2018-07-06T11:35:45.415Z,31.34
2018-07-06T11:36:45.672Z,30.23
2018-07-06T11:37:45.928Z,30.84
2018-07-06T11:38:46.181Z,31.76
2018-07-06T11:39:46.436Z,32.19
2018-07-06T11:40:46.692Z,32.92
2018-07-06T11:41:46.944Z,32.70
2018-07-06T11:42:47.202Z,32.26
2018-07-06T11:43:47.454Z,32.11
2018-07-06T11:44:47.752Z,31.34
2018-07-06T11:45:47.965Z,30.88
2018-07-06T11:46:48.220Z,31.31
2018-07-06T11:47:48.475Z,29.97
2018-07-06T11:48:48.731Z,30.11
2018-07-06T11:49:48.984Z,29.70
2018-07-06T11:50:49.240Z,30.31
2018-07-06T11:51:49.498Z,30.88
2018-07-06T11:52:49.751Z,31.14
2018-07-06T11:53:50.007Z,31.44
2018-07-06T11:54:50.260Z,30.42
2018-07-06T11:55:50.517Z,31.17
2018-07-06T11:56:50.773Z,31.36
2018-07-06T11:57:51.027Z,31.58
2018-07-06T11:58:51.284Z,31.43
2018-07-06T11:59:51.537Z,30.83
2018-07-06T12:00:51.793Z,30.46
2018-07-06T12:01:52.097Z,29.82
2018-07-06T12:02:52.302Z,29.76
2018-07-06T12:03:52.582Z,29.61
2018-07-06T12:04:52.812Z,29.57
2018-07-06T12:05:53.069Z,29.67
2018-07-06T12:06:53.322Z,30.57
2018-07-06T12:07:53.576Z,31.29
2018-07-06T12:08:53.831Z,31.73
2018-07-06T12:09:54.083Z,32.41
2018-07-06T12:10:54.338Z,32.08
2018-07-06T12:11:54.593Z,31.95
2018-07-06T12:12:54.847Z,31.70
2018-07-06T12:13:55.103Z,31.91
2018-07-06T12:14:55.357Z,32.69
2018-07-06T12:15:55.613Z,32.92
2018-07-06T12:16:55.867Z,33.38
2018-07-06T12:17:56.119Z,33.18
2018-07-06T12:18:56.376Z,32.32
2018-07-06T12:19:56.629Z,32.06
2018-07-06T12:20:56.904Z,31.38
2018-07-06T12:21:57.143Z,31.69
2018-07-06T12:22:57.397Z,31.06
2018-07-06T12:23:57.652Z,31.02
2018-07-06T12:24:57.905Z,31.68
2018-07-06T12:25:58.161Z,31.78
2018-07-06T12:26:58.415Z,32.18
2018-07-06T12:27:58.672Z,32.15
2018-07-06T12:28:58.929Z,32.66
2018-07-06T12:29:59.185Z,32.66
2018-07-06T12:30:59.437Z,32.48
2018-07-06T12:31:59.692Z,31.80
2018-07-06T12:32:59.946Z,32.21
2018-07-06T12:34:00.201Z,32.10
2018-07-06T12:35:00.457Z,32.70
2018-07-06T12:36:00.711Z,32.59
2018-07-06T12:37:00.991Z,32.62
2018-07-06T12:38:01.221Z,32.52
2018-07-06T12:39:01.474Z,32.99
2018-07-06T12:40:01.729Z,32.81
2018-07-06T12:41:01.984Z,33.22
2018-07-06T12:42:02.237Z,33.14
2018-07-06T12:43:02.496Z,32.62
2018-07-06T12:44:02.749Z,32.40
2018-07-06T12:45:03.003Z,32.51
2018-07-06T12:46:03.258Z,32.87
2018-07-06T12:47:03.513Z,32.43
2018-07-06T12:48:03.767Z,31.89
2018-07-06T12:49:04.023Z,31.31
2018-07-06T12:50:04.279Z,30.92
2018-07-06T12:51:04.531Z,31.65
2018-07-06T12:52:04.786Z,32.18
2018-07-06T12:53:05.038Z,32.41
2018-07-06T12:54:05.294Z,32.78
2018-07-06T12:55:05.546Z,32.89
2018-07-06T12:56:05.802Z,32.01